
Distance (Route):
Temperature : 7.2°C
Humidity : 78.3%
Pressure : 0hPa| Receiver | Frames | First received | Last received |
|---|---|---|---|
| LZ4TU-5 | 147 | 2026-09-01 11:06:38 | 2026-09-01 12:53:58 |
| Receiver | Date | Latitude | Longitude | Direction | Speed | Altitude | Climb | Temperature | Humidity | Pressure | Voltage | Killtimer | Uptime | BKT | XDATA |
|---|---|---|---|---|---|---|---|---|---|---|---|---|---|---|---|
| LZ4TU-5 | 2026-09-01 12:53:58 | 44.37446 | 27.31547 | 122° | 35km/h | 2980m | -11.1m/s | 7.2°C | 78.3% | 0hPa | 0V | 08:21:00 | 00:00:00 | 00:00:00 | |
| LZ4TU-5 | 2026-09-01 12:53:50 | 44.37481 | 27.31466 | 127° | 35km/h | 3072m | -10.2m/s | 6.9°C | 73.5% | 0hPa | 0V | 08:21:00 | 00:00:00 | 00:00:00 | |
| LZ4TU-5 | 2026-09-01 12:53:45 | 44.37505 | 27.31412 | 118° | 37km/h | 3129m | -11.4m/s | 6.5°C | 75.8% | 0hPa | 0V | 08:22:00 | 00:00:00 | 00:00:00 | |
| LZ4TU-5 | 2026-09-01 12:53:41 | 44.37524 | 27.31366 | 123° | 35km/h | 3176m | -11.5m/s | 6.1°C | 76.4% | 0hPa | 0V | 08:22:00 | 00:00:00 | 00:00:00 | |
| LZ4TU-5 | 2026-09-01 12:53:36 | 44.37547 | 27.31310 | 118° | 38km/h | 3234m | -12.0m/s | 5.6°C | 77.9% | 0hPa | 0V | 08:22:00 | 00:00:00 | 00:00:00 | |
| LZ4TU-5 | 2026-09-01 12:53:32 | 44.37564 | 27.31265 | 123° | 37km/h | 3280m | -12.2m/s | 5.2°C | 79.5% | 0hPa | 0V | 08:22:00 | 00:00:00 | 00:00:00 | |
| LZ4TU-5 | 2026-09-01 12:53:27 | 44.37586 | 27.31209 | 120° | 33km/h | 3340m | -11.4m/s | 4.7°C | 76.5% | 0hPa | 0V | 08:22:00 | 00:00:00 | 00:00:00 | |
| LZ4TU-5 | 2026-09-01 12:53:23 | 44.37604 | 27.31166 | 122° | 35km/h | 3387m | -11.7m/s | 4.3°C | 76.9% | 0hPa | 0V | 08:22:00 | 00:00:00 | 00:00:00 | |
| LZ4TU-5 | 2026-09-01 12:53:19 | 44.37621 | 27.31122 | 116° | 38km/h | 3433m | -12.9m/s | 4.1°C | 76.2% | 0hPa | 0V | 08:22:00 | 00:00:00 | 00:00:00 | |
| LZ4TU-5 | 2026-09-01 12:53:16 | 44.37639 | 27.31076 | 117° | 38km/h | 3482m | -11.8m/s | 3.6°C | 78.0% | 0hPa | 0V | 08:22:00 | 00:00:00 | 00:00:00 | |
| LZ4TU-5 | 2026-09-01 12:53:10 | 44.37661 | 27.31019 | 120° | 38km/h | 3541m | -12.1m/s | 3.1°C | 82.6% | 0hPa | 0V | 08:22:00 | 00:00:00 | 00:00:00 | |
| LZ4TU-5 | 2026-09-01 12:53:06 | 44.37679 | 27.30971 | 118° | 38km/h | 3589m | -11.8m/s | 2.7°C | 83.2% | 0hPa | 0V | 08:22:00 | 00:00:00 | 00:00:00 | |
| LZ4TU-5 | 2026-09-01 12:53:02 | 44.37697 | 27.30924 | 117° | 38km/h | 3637m | -12.1m/s | 2.3°C | 81.2% | 0hPa | 0V | 08:22:00 | 00:00:00 | 00:00:00 | |
| LZ4TU-5 | 2026-09-01 12:52:57 | 44.37719 | 27.30867 | 122° | 35km/h | 3694m | -11.7m/s | 1.8°C | 85.3% | 0hPa | 0V | 08:22:00 | 00:00:00 | 00:00:00 | |
| LZ4TU-5 | 2026-09-01 12:52:52 | 44.37741 | 27.30811 | 115° | 38km/h | 3752m | -11.7m/s | 1.6°C | 85.0% | 0hPa | 0V | 08:23:00 | 00:00:00 | 00:00:00 | |
| LZ4TU-5 | 2026-09-01 12:52:48 | 44.37756 | 27.30765 | 113° | 37km/h | 3799m | -12.5m/s | 1.4°C | 84.5% | 0hPa | 0V | 08:23:00 | 00:00:00 | 00:00:00 | |
| LZ4TU-5 | 2026-09-01 12:52:44 | 44.37770 | 27.30721 | 115° | 33km/h | 3848m | -11.9m/s | 1.2°C | 81.8% | 0hPa | 0V | 08:23:00 | 00:00:00 | 00:00:00 | |
| LZ4TU-5 | 2026-09-01 12:52:39 | 44.37788 | 27.30666 | 114° | 33km/h | 3909m | -12.4m/s | 0.8°C | 81.0% | 0hPa | 0V | 08:23:00 | 00:00:00 | 00:00:00 | |
| LZ4TU-5 | 2026-09-01 12:52:34 | 44.37806 | 27.30612 | 115° | 37km/h | 3970m | -12.2m/s | 0.4°C | 82.1% | 0hPa | 0V | 08:23:00 | 00:00:00 | 00:00:00 | |
| LZ4TU-5 | 2026-09-01 12:52:30 | 44.37821 | 27.30569 | 116° | 33km/h | 4017m | -12.2m/s | 0.2°C | 80.2% | 0hPa | 0V | 08:23:00 | 00:00:00 | 00:00:00 | |
| LZ4TU-5 | 2026-09-01 12:52:27 | 44.37836 | 27.30524 | 118° | 37km/h | 4066m | -12.7m/s | -0.1°C | 77.3% | 0hPa | 0V | 08:23:00 | 00:00:00 | 00:00:00 | |
| LZ4TU-5 | 2026-09-01 12:52:22 | 44.37852 | 27.30477 | 119° | 35km/h | 4114m | -12.0m/s | -0.3°C | 75.7% | 0hPa | 0V | 08:23:00 | 00:00:00 | 00:00:00 | |
| LZ4TU-5 | 2026-09-01 12:52:18 | 44.37875 | 27.30415 | 119° | 37km/h | 4176m | -12.1m/s | -0.6°C | 73.3% | 0hPa | 0V | 08:23:00 | 00:00:00 | 00:00:00 | |
| LZ4TU-5 | 2026-09-01 12:52:13 | 44.37892 | 27.30364 | 117° | 38km/h | 4225m | -12.2m/s | -1.1°C | 74.6% | 0hPa | 0V | 08:23:00 | 00:00:00 | 00:00:00 | |
| LZ4TU-5 | 2026-09-01 12:52:08 | 44.37914 | 27.30304 | 116° | 37km/h | 4287m | -12.3m/s | -1.6°C | 80.7% | 0hPa | 0V | 08:23:00 | 00:00:00 | 00:00:00 | |
| LZ4TU-5 | 2026-09-01 12:52:06 | 44.37929 | 27.30256 | 110° | 35km/h | 4337m | -12.4m/s | -1.1°C | 71.5% | 0hPa | 0V | 08:23:00 | 00:00:00 | 00:00:00 | |
| LZ4TU-5 | 2026-09-01 12:51:59 | 44.37943 | 27.30194 | 107° | 38km/h | 4398m | -12.9m/s | -1.3°C | 68.5% | 0hPa | 0V | 00:00:00 | 00:00:00 | 00:00:00 | |
| LZ4TU-5 | 2026-09-01 12:51:55 | 44.37954 | 27.30142 | 111° | 38km/h | 4449m | -12.3m/s | -1.6°C | 69.0% | 0hPa | 0V | 00:00:00 | 00:00:00 | 00:00:00 | |
| LZ4TU-5 | 2026-09-01 12:51:50 | 44.37971 | 27.30077 | 112° | 40km/h | 4510m | -12.4m/s | -2.0°C | 66.0% | 0hPa | 0V | 00:00:00 | 00:00:00 | 00:00:00 | |
| LZ4TU-5 | 2026-09-01 12:49:49 | 44.38574 | 27.28316 | 114° | 42km/h | 6123m | -13.0m/s | -11.6°C | 32.9% | 0hPa | 0V | 00:00:00 | 00:00:00 | 00:00:00 | |
| LZ4TU-5 | 2026-09-01 12:49:44 | 44.38596 | 27.28247 | 115° | 46km/h | 6191m | -14.4m/s | -11.9°C | 23.2% | 0hPa | 0V | 00:00:00 | 00:00:00 | 00:00:00 | |
| LZ4TU-5 | 2026-09-01 12:47:36 | 44.39498 | 27.25837 | 108° | 60km/h | 7926m | -13.6m/s | -24.2°C | 15.8% | 0hPa | 0V | 00:00:00 | 00:00:00 | 00:00:00 | |
| LZ4TU-5 | 2026-09-01 12:47:31 | 44.39517 | 27.25732 | 103° | 64km/h | 7994m | -14.4m/s | -24.8°C | 21.8% | 0hPa | 0V | 00:00:00 | 00:00:00 | 00:00:00 | |
| LZ4TU-5 | 2026-09-01 12:45:29 | 44.39828 | 27.22647 | 101° | 102km/h | 9809m | -16.9m/s | -38.2°C | 14.8% | 0hPa | 0V | 00:00:00 | 00:00:00 | 00:00:00 | |
| LZ4TU-5 | 2026-09-01 12:45:25 | 44.39847 | 27.22508 | 101° | 100km/h | 9873m | -16.5m/s | -38.8°C | 67.8% | 0hPa | 0V | 00:00:00 | 00:00:00 | 00:00:00 | |
| LZ4TU-5 | 2026-09-01 12:40:24 | -12.03915 | -77.05934 | 2° | 199km/h | 991m | 0.3m/s | -60.5°C | 5.3% | 0hPa | 0V | 00:00:00 | 00:00:00 | 00:00:00 | |
| LZ4TU-5 | 2026-09-01 12:40:20 | -12.04114 | -77.05917 | 349° | 195km/h | 989m | 1.7m/s | -61.0°C | 5.5% | 0hPa | 0V | 00:00:00 | 00:00:00 | 00:00:00 | |
| LZ4TU-5 | 2026-09-01 12:38:06 | -12.04827 | -77.05138 | 279° | 199km/h | 978m | 0.4m/s | -56.5°C | 4.3% | 0hPa | 0V | 00:00:00 | 00:00:00 | 00:00:00 | |
| LZ4TU-5 | 2026-09-01 12:38:02 | -12.04833 | -77.04929 | 266° | 199km/h | 976m | 0.3m/s | -56.5°C | 4.3% | 0hPa | 0V | 00:00:00 | 00:00:00 | 00:00:00 | |
| LZ4TU-5 | 2026-09-01 12:32:09 | -12.03442 | -77.04239 | 148° | 197km/h | 990m | -0.2m/s | -50.6°C | 3.2% | 0hPa | 0V | 00:00:00 | 00:00:00 | 00:00:00 | |
| LZ4TU-5 | 2026-09-01 12:32:05 | -12.03252 | -77.04404 | 132° | 199km/h | 988m | 0.2m/s | -50.6°C | 3.2% | 0hPa | 0V | 00:00:00 | 00:00:00 | 00:00:00 | |
| LZ4TU-5 | 2026-09-01 12:30:11 | -12.03223 | -77.04430 | 130° | 199km/h | 983m | -0.2m/s | -51.2°C | 3.3% | 0hPa | 0V | 00:00:00 | 00:00:00 | 00:00:00 | |
| LZ4TU-5 | 2026-09-01 12:30:06 | -12.03090 | -77.04652 | 114° | 201km/h | 983m | -0.2m/s | -51.1°C | 3.3% | 0hPa | 0V | 00:00:00 | 00:00:00 | 00:00:00 | |
| LZ4TU-5 | 2026-09-01 12:28:12 | -12.03067 | -77.04725 | 108° | 199km/h | 989m | 0.1m/s | -52.2°C | 3.3% | 0hPa | 0V | 00:00:00 | 00:00:00 | 00:00:00 | |
| LZ4TU-5 | 2026-09-01 12:28:07 | -12.03025 | -77.04979 | 92° | 199km/h | 991m | 0.1m/s | -52.3°C | 3.4% | 0hPa | 0V | 00:00:00 | 00:00:00 | 00:00:00 | |
| LZ4TU-5 | 2026-09-01 12:26:14 | -12.03025 | -77.05024 | 90° | 199km/h | 970m | -0.0m/s | -53.6°C | 3.5% | 0hPa | 0V | 00:00:00 | 00:00:00 | 00:00:00 | |
| LZ4TU-5 | 2026-09-01 12:26:10 | -12.03051 | -77.05228 | 77° | 199km/h | 971m | -0.0m/s | -53.9°C | 3.6% | 0hPa | 0V | 00:00:00 | 00:00:00 | 00:00:00 | |
| LZ4TU-5 | 2026-09-01 12:24:18 | -12.03047 | -77.05218 | 78° | 199km/h | 972m | -0.0m/s | -54.1°C | 3.7% | 0hPa | 0V | 00:00:00 | 00:00:00 | 00:00:00 | |
| LZ4TU-5 | 2026-09-01 12:22:21 | -12.03996 | -77.05908 | 357° | 199km/h | 969m | 0.0m/s | -54.2°C | 3.7% | 0hPa | 0V | 00:00:00 | 00:00:00 | 00:00:00 | |
| LZ4TU-5 | 2026-09-01 12:22:17 | -12.04195 | -77.05871 | 344° | 199km/h | 968m | 0.0m/s | -54.0°C | 0% | 0hPa | 0V | 00:00:00 | 00:00:00 | 00:00:00 | |
| LZ4TU-5 | 2026-09-01 12:20:25 | -12.04175 | -77.05885 | 345° | 199km/h | 974m | 0.4m/s | -55.2°C | 3.9% | 0hPa | 0V | 00:00:00 | 00:00:00 | 00:00:00 | |
| LZ4TU-5 | 2026-09-01 12:20:20 | -12.04407 | -77.05779 | 329° | 199km/h | 973m | 0.1m/s | -55.5°C | 0% | 0hPa | 0V | 00:00:00 | 00:00:00 | 00:00:00 | |
| LZ4TU-5 | 2026-09-01 12:18:21 | -12.04665 | -77.05535 | 307° | 199km/h | 973m | -0.0m/s | -55.2°C | 4.0% | 0hPa | 0V | 00:00:00 | 00:00:00 | 00:00:00 | |
| LZ4TU-5 | 2026-09-01 12:18:16 | -12.04783 | -77.05310 | 291° | 199km/h | 974m | -0.2m/s | -55.1°C | 3.9% | 0hPa | 0V | 00:00:00 | 00:00:00 | 00:00:00 | |
| LZ4TU-5 | 2026-09-01 12:16:25 | -12.04740 | -77.05413 | 298° | 199km/h | 986m | 0.2m/s | -56.0°C | 4.0% | 0hPa | 0V | 00:00:00 | 00:00:00 | 00:00:00 | |
| LZ4TU-5 | 2026-09-01 12:14:29 | -12.04124 | -77.04059 | 193° | 199km/h | 988m | -0.0m/s | -54.4°C | 3.7% | 0hPa | 0V | 00:00:00 | 00:00:00 | 00:00:00 | |
| LZ4TU-5 | 2026-09-01 12:14:24 | -12.03872 | -77.04041 | 177° | 199km/h | 988m | 0.0m/s | -54.4°C | 3.7% | 0hPa | 0V | 00:00:00 | 00:00:00 | 00:00:00 | |
| LZ4TU-5 | 2026-09-01 12:12:27 | -12.03635 | -77.04091 | 162° | 199km/h | 989m | 0.0m/s | -55.4°C | 3.9% | 0hPa | 0V | 00:00:00 | 00:00:00 | 00:00:00 | |
| LZ4TU-5 | 2026-09-01 12:12:22 | -12.03411 | -77.04208 | 146° | 199km/h | 990m | 0.0m/s | -55.7°C | 3.9% | 0hPa | 0V | 00:00:00 | 00:00:00 | 00:00:00 | |
| LZ4TU-5 | 2026-09-01 12:10:26 | -12.03234 | -77.04377 | 130° | 199km/h | 993m | -0.0m/s | -55.6°C | 4.0% | 0hPa | 0V | 00:00:00 | 00:00:00 | 00:00:00 | |
| LZ4TU-5 | 2026-09-01 12:10:21 | -12.03104 | -77.04597 | 114° | 199km/h | 993m | 0.0m/s | -55.4°C | 4.0% | 0hPa | 0V | 00:00:00 | 00:00:00 | 00:00:00 | |
| LZ4TU-5 | 2026-09-01 12:08:30 | -12.03153 | -77.04495 | 121° | 199km/h | 992m | -0.0m/s | -58.9°C | 4.7% | 0hPa | 0V | 00:00:00 | 00:00:00 | 00:00:00 | |
| LZ4TU-5 | 2026-09-01 12:08:25 | -12.03058 | -77.04732 | 105° | 199km/h | 992m | 0.0m/s | -58.8°C | 4.6% | 0hPa | 0V | 00:00:00 | 00:00:00 | 00:00:00 | |
| LZ4TU-5 | 2026-09-01 12:06:32 | -12.03049 | -77.04774 | 103° | 199km/h | 992m | -0.0m/s | -56.6°C | 4.2% | 0hPa | 0V | 00:00:00 | 00:00:00 | 00:00:00 | |
| LZ4TU-5 | 2026-09-01 12:06:27 | -12.03034 | -77.05029 | 87° | 199km/h | 992m | 0.1m/s | -56.8°C | 1.6% | 0hPa | 0V | 00:00:00 | 00:00:00 | 00:00:00 | |
| LZ4TU-5 | 2026-09-01 12:04:40 | 44.38833 | 27.02687 | 0° | 0km/h | 15925m | 0.0m/s | -58.8°C | 2.0% | 0hPa | 0V | 00:00:00 | 00:00:00 | 00:00:00 | |
| LZ4TU-5 | 2026-09-01 12:04:36 | 44.37403 | 27.02064 | 66° | 66km/h | 16398m | 5.0m/s | -59.1°C | 2.0% | 0hPa | 0V | 00:00:00 | 00:00:00 | 00:00:00 | |
| LZ4TU-5 | 2026-09-01 12:04:30 | 44.37403 | 27.02064 | 66° | 66km/h | 16398m | 5.0m/s | -59.3°C | 2.0% | 0hPa | 0V | 00:00:00 | 00:00:00 | 00:00:00 | |
| LZ4TU-5 | 2026-09-01 12:02:48 | 44.37396 | 27.02042 | 66° | 71km/h | 16394m | 4.2m/s | -60.4°C | 2.4% | 0hPa | 0V | 00:00:00 | 00:00:00 | 00:00:00 | |
| LZ4TU-5 | 2026-09-01 12:02:43 | 44.37356 | 27.01930 | 66° | 68km/h | 16371m | 4.2m/s | -60.4°C | 2.5% | 0hPa | 0V | 00:00:00 | 00:00:00 | 00:00:00 | |
| LZ4TU-5 | 2026-09-01 12:00:55 | 44.36797 | 26.99925 | 87° | 69km/h | 15825m | 4.9m/s | -59.2°C | 3.0% | 0hPa | 0V | 00:00:00 | 00:00:00 | 00:00:00 | |
| LZ4TU-5 | 2026-09-01 12:00:50 | 44.36795 | 26.99809 | 89° | 69km/h | 15804m | 4.3m/s | -59.2°C | 0% | 0hPa | 0V | 00:00:00 | 00:00:00 | 00:00:00 | |
| LZ4TU-5 | 2026-09-01 11:59:00 | 44.36358 | 26.97183 | 73° | 44km/h | 15284m | 4.4m/s | -59.3°C | 4.1% | 0hPa | 0V | 00:00:00 | 00:00:00 | 00:00:00 | |
| LZ4TU-5 | 2026-09-01 11:58:55 | 44.36342 | 26.97100 | 69° | 55km/h | 15260m | 3.9m/s | -59.1°C | 4.1% | 0hPa | 0V | 00:00:00 | 00:00:00 | 00:00:00 | |
| LZ4TU-5 | 2026-09-01 11:57:07 | 44.36401 | 26.94782 | 88° | 78km/h | 14746m | 4.4m/s | -60.4°C | 6.6% | 0hPa | 0V | 00:00:00 | 00:00:00 | 00:00:00 | |
| LZ4TU-5 | 2026-09-01 11:57:02 | 44.36401 | 26.94642 | 92° | 78km/h | 14723m | 4.3m/s | -60.5°C | 6.8% | 0hPa | 0V | 00:00:00 | 00:00:00 | 00:00:00 | |
| LZ4TU-5 | 2026-09-01 11:55:16 | 44.36535 | 26.91603 | 91° | 88km/h | 14243m | 3.2m/s | -61.0°C | 9.8% | 0hPa | 0V | 00:00:00 | 00:00:00 | 00:00:00 | |
| LZ4TU-5 | 2026-09-01 11:55:12 | 44.36542 | 26.91484 | 98° | 82km/h | 14226m | 4.1m/s | -61.0°C | 10.3% | 0hPa | 0V | 00:00:00 | 00:00:00 | 00:00:00 | |
| LZ4TU-5 | 2026-09-01 11:53:29 | 44.36636 | 26.88155 | 92° | 100km/h | 13770m | 5.3m/s | -60.0°C | 12.9% | 0hPa | 0V | 00:00:00 | 00:00:00 | 00:00:00 | |
| LZ4TU-5 | 2026-09-01 11:53:24 | 44.36636 | 26.87977 | 90° | 102km/h | 13748m | 3.9m/s | -59.8°C | 13.2% | 0hPa | 0V | 00:00:00 | 00:00:00 | 00:00:00 | |
| LZ4TU-5 | 2026-09-01 11:51:39 | 44.36675 | 26.84194 | 96° | 104km/h | 13265m | 4.3m/s | -58.2°C | 14.0% | 0hPa | 0V | 00:00:00 | 00:00:00 | 00:00:00 | |
| LZ4TU-5 | 2026-09-01 11:51:34 | 44.36686 | 26.84006 | 95° | 106km/h | 13243m | 3.8m/s | -58.2°C | 14.4% | 0hPa | 0V | 00:00:00 | 00:00:00 | 00:00:00 | |
| LZ4TU-5 | 2026-09-01 11:49:53 | 44.36983 | 26.80311 | 96° | 108km/h | 12807m | 4.7m/s | -56.7°C | 15.0% | 0hPa | 0V | 00:00:00 | 00:00:00 | 00:00:00 | |
| LZ4TU-5 | 2026-09-01 11:49:48 | 44.36995 | 26.80125 | 95° | 106km/h | 12788m | 4.3m/s | -56.6°C | 15.0% | 0hPa | 0V | 00:00:00 | 00:00:00 | 00:00:00 | |
| LZ4TU-5 | 2026-09-01 11:48:00 | 44.37666 | 26.76030 | 105° | 113km/h | 12347m | 3.4m/s | -54.2°C | 12.2% | 0hPa | 0V | 00:00:00 | 00:00:00 | 00:00:00 | |
| LZ4TU-5 | 2026-09-01 11:47:57 | 44.37696 | 26.75877 | 107° | 111km/h | 12328m | 4.4m/s | -54.1°C | 0% | 0hPa | 0V | 00:00:00 | 00:00:00 | 00:00:00 | |
| LZ4TU-5 | 2026-09-01 11:46:13 | 44.38626 | 26.71677 | 107° | 128km/h | 11899m | 4.6m/s | -52.5°C | 16.7% | 0hPa | 0V | 00:00:00 | 00:00:00 | 00:00:00 | |
| LZ4TU-5 | 2026-09-01 11:44:33 | 44.39526 | 26.67243 | 106° | 126km/h | 11468m | 4.3m/s | -49.5°C | 14.3% | 0hPa | 0V | 00:00:00 | 00:00:00 | 00:00:00 | |
| LZ4TU-5 | 2026-09-01 11:44:28 | 44.39567 | 26.67029 | 107° | 128km/h | 11446m | 4.4m/s | -49.3°C | 14.2% | 0hPa | 0V | 00:00:00 | 00:00:00 | 00:00:00 | |
| LZ4TU-5 | 2026-09-01 11:42:50 | 44.40459 | 26.62731 | 107° | 126km/h | 11037m | 4.0m/s | -46.3°C | 11.0% | 0hPa | 0V | 00:00:00 | 00:00:00 | 00:00:00 | |
| LZ4TU-5 | 2026-09-01 11:42:46 | 44.40503 | 26.62516 | 107° | 128km/h | 11016m | 4.4m/s | -46.1°C | 11.2% | 0hPa | 0V | 00:00:00 | 00:00:00 | 00:00:00 | |
| LZ4TU-5 | 2026-09-01 11:41:07 | 44.41286 | 26.58468 | 103° | 110km/h | 10617m | 3.9m/s | -43.8°C | 13.6% | 0hPa | 0V | 00:00:00 | 00:00:00 | 00:00:00 | |
| LZ4TU-5 | 2026-09-01 11:41:02 | 44.41312 | 26.58270 | 101° | 115km/h | 10596m | 3.7m/s | -43.7°C | 13.5% | 0hPa | 0V | 00:00:00 | 00:00:00 | 00:00:00 | |
| LZ4TU-5 | 2026-09-01 11:39:30 | 44.41710 | 26.54741 | 102° | 106km/h | 10222m | 4.8m/s | -41.0°C | 14.4% | 0hPa | 0V | 00:00:00 | 00:00:00 | 00:00:00 | |
| LZ4TU-5 | 2026-09-01 11:39:26 | 44.41732 | 26.54593 | 102° | 106km/h | 10206m | 4.7m/s | -41.1°C | 0% | 0hPa | 0V | 00:00:00 | 00:00:00 | 00:00:00 | |
| LZ4TU-5 | 2026-09-01 11:37:52 | 44.42080 | 26.51421 | 97° | 91km/h | 9827m | 4.2m/s | -38.3°C | 13.7% | 0hPa | 0V | 00:00:00 | 00:00:00 | 00:00:00 | |
| LZ4TU-5 | 2026-09-01 11:37:47 | 44.42093 | 26.51256 | 98° | 99km/h | 9806m | 3.4m/s | -38.1°C | 13.6% | 0hPa | 0V | 00:00:00 | 00:00:00 | 00:00:00 | |
| LZ4TU-5 | 2026-09-01 11:35:57 | 44.42361 | 26.47662 | 99° | 93km/h | 9365m | 3.5m/s | -34.3°C | 10.6% | 0hPa | 0V | 00:00:00 | 00:00:00 | 00:00:00 | |
| LZ4TU-5 | 2026-09-01 11:35:52 | 44.42373 | 26.47501 | 96° | 88km/h | 9346m | 3.6m/s | -34.2°C | 10.6% | 0hPa | 0V | 00:00:00 | 00:00:00 | 00:00:00 | |
| LZ4TU-5 | 2026-09-01 11:34:34 | 44.42562 | 26.45293 | 99° | 75km/h | 9046m | 3.5m/s | -32.8°C | 8.9% | 0hPa | 0V | 00:00:00 | 00:00:00 | 00:00:00 | |
| LZ4TU-5 | 2026-09-01 11:34:30 | 44.42571 | 26.45188 | 99° | 75km/h | 9026m | 5.2m/s | -32.6°C | 9.0% | 0hPa | 0V | 00:00:00 | 00:00:00 | 00:00:00 | |
| LZ4TU-5 | 2026-09-01 11:32:27 | 44.42779 | 26.42237 | 99° | 60km/h | 8478m | 3.2m/s | -29.1°C | 15.6% | 0hPa | 0V | 00:00:00 | 00:00:00 | 00:00:00 | |
| LZ4TU-5 | 2026-09-01 11:32:23 | 44.42786 | 26.42134 | 95° | 58km/h | 8459m | 4.3m/s | -28.9°C | 15.7% | 0hPa | 0V | 00:00:00 | 00:00:00 | 00:00:00 | |
| LZ4TU-5 | 2026-09-01 11:31:12 | 44.42892 | 26.40656 | 98° | 55km/h | 8189m | 3.6m/s | -26.6°C | 22.9% | 0hPa | 0V | 00:00:00 | 00:00:00 | 00:00:00 | |
| LZ4TU-5 | 2026-09-01 11:31:07 | 44.42903 | 26.40551 | 102° | 60km/h | 8169m | 5.0m/s | -26.4°C | 22.8% | 0hPa | 0V | 00:00:00 | 00:00:00 | 00:00:00 | |
| LZ4TU-5 | 2026-09-01 11:29:58 | 44.43121 | 26.39119 | 105° | 58km/h | 7893m | 5.1m/s | -24.1°C | 25.8% | 0hPa | 0V | 00:00:00 | 00:00:00 | 00:00:00 | |
| LZ4TU-5 | 2026-09-01 11:29:53 | 44.43135 | 26.39039 | 103° | 57km/h | 7877m | 4.4m/s | -23.9°C | 25.4% | 0hPa | 0V | 00:00:00 | 00:00:00 | 00:00:00 | |
| LZ4TU-5 | 2026-09-01 11:28:44 | 44.43473 | 26.37592 | 111° | 62km/h | 7590m | 4.1m/s | -21.2°C | 19.9% | 0hPa | 0V | 00:00:00 | 00:00:00 | 00:00:00 | |
| LZ4TU-5 | 2026-09-01 11:28:40 | 44.43493 | 26.37508 | 109° | 62km/h | 7575m | 3.3m/s | -21.1°C | 0% | 0hPa | 0V | 00:00:00 | 00:00:00 | 00:00:00 | |
| LZ4TU-5 | 2026-09-01 11:27:22 | 44.44015 | 26.35901 | 119° | 68km/h | 7268m | 3.9m/s | -18.7°C | 6.8% | 0hPa | 0V | 00:00:00 | 00:00:00 | 00:00:00 | |
| LZ4TU-5 | 2026-09-01 11:27:18 | 44.44051 | 26.35797 | 114° | 64km/h | 7250m | 4.1m/s | -18.5°C | 6.6% | 0hPa | 0V | 00:00:00 | 00:00:00 | 00:00:00 | |
| LZ4TU-5 | 2026-09-01 11:26:01 | 44.44609 | 26.34220 | 116° | 64km/h | 6938m | 3.3m/s | -16.0°C | 19.6% | 0hPa | 0V | 00:00:00 | 00:00:00 | 00:00:00 | |
| LZ4TU-5 | 2026-09-01 11:25:57 | 44.44643 | 26.34126 | 122° | 58km/h | 6919m | 3.7m/s | -15.9°C | 20.7% | 0hPa | 0V | 00:00:00 | 00:00:00 | 00:00:00 | |
| LZ4TU-5 | 2026-09-01 11:24:55 | 44.45070 | 26.32957 | 116° | 55km/h | 6661m | 4.3m/s | -14.8°C | 32.2% | 0hPa | 0V | 00:00:00 | 00:00:00 | 00:00:00 | |
| LZ4TU-5 | 2026-09-01 11:24:50 | 44.45106 | 26.32868 | 123° | 60km/h | 6639m | 4.2m/s | -14.7°C | 33.5% | 0hPa | 0V | 00:00:00 | 00:00:00 | 00:00:00 | |
| LZ4TU-5 | 2026-09-01 11:23:48 | 44.45495 | 26.31773 | 115° | 44km/h | 6365m | 3.8m/s | -14.4°C | 48.9% | 0hPa | 0V | 00:00:00 | 00:00:00 | 00:00:00 | |
| LZ4TU-5 | 2026-09-01 11:23:42 | 44.45519 | 26.31687 | 105° | 49km/h | 6344m | 5.0m/s | -14.2°C | 44.1% | 0hPa | 0V | 00:00:00 | 00:00:00 | 00:00:00 | |
| LZ4TU-5 | 2026-09-01 11:22:40 | 44.45807 | 26.30772 | 120° | 46km/h | 6046m | 5.2m/s | -11.9°C | 5.8% | 0hPa | 0V | 00:00:00 | 00:00:00 | 00:00:00 | |
| LZ4TU-5 | 2026-09-01 11:22:35 | 44.45832 | 26.30703 | 110° | 44km/h | 6022m | 4.6m/s | -11.7°C | 5.9% | 0hPa | 0V | 00:00:00 | 00:00:00 | 00:00:00 | |
| LZ4TU-5 | 2026-09-01 11:21:32 | 44.46103 | 26.29860 | 107° | 47km/h | 5730m | 4.3m/s | -9.2°C | 10.4% | 0hPa | 0V | 00:00:00 | 00:00:00 | 00:00:00 | |
| LZ4TU-5 | 2026-09-01 11:21:27 | 44.46123 | 26.29786 | 126° | 40km/h | 5709m | 5.7m/s | -9.0°C | 10.0% | 0hPa | 0V | 00:00:00 | 00:00:00 | 00:00:00 | |
| LZ4TU-5 | 2026-09-01 11:20:23 | 44.46391 | 26.28793 | 123° | 57km/h | 5402m | 4.6m/s | -6.8°C | 12.9% | 0hPa | 0V | 00:00:00 | 00:00:00 | 00:00:00 | |
| LZ4TU-5 | 2026-09-01 11:20:19 | 44.46415 | 26.28726 | 110° | 51km/h | 5381m | 8.0m/s | -6.8°C | 14.1% | 0hPa | 0V | 00:00:00 | 00:00:00 | 00:00:00 | |
| LZ4TU-5 | 2026-09-01 11:19:14 | 44.46758 | 26.27818 | 121° | 38km/h | 5072m | 5.4m/s | -5.1°C | 23.9% | 0hPa | 0V | 00:00:00 | 00:00:00 | 00:00:00 | |
| LZ4TU-5 | 2026-09-01 11:19:09 | 44.46788 | 26.27761 | 134° | 37km/h | 5047m | 4.7m/s | -4.9°C | 23.2% | 0hPa | 0V | 00:00:00 | 00:00:00 | 00:00:00 | |
| LZ4TU-5 | 2026-09-01 11:18:06 | 44.47042 | 26.26919 | 113° | 40km/h | 4756m | 5.0m/s | -3.9°C | 65.1% | 0hPa | 0V | 00:00:00 | 00:00:00 | 00:00:00 | |
| LZ4TU-5 | 2026-09-01 11:17:04 | 44.47136 | 26.26190 | 101° | 37km/h | 4461m | 4.2m/s | -2.7°C | 76.0% | 0hPa | 0V | 00:00:00 | 00:00:00 | 00:00:00 | |
| LZ4TU-5 | 2026-09-01 11:16:59 | 44.47143 | 26.26146 | 100° | 31km/h | 4443m | 5.1m/s | -2.5°C | 73.5% | 0hPa | 0V | 00:00:00 | 00:00:00 | 00:00:00 | |
| LZ4TU-5 | 2026-09-01 11:15:57 | 44.47343 | 26.25486 | 133° | 35km/h | 4201m | 5.2m/s | -1.6°C | 0% | 0hPa | 0V | 00:00:00 | 00:00:00 | 00:00:00 | |
| LZ4TU-5 | 2026-09-01 11:15:00 | 44.47701 | 26.24972 | 117° | 26km/h | 3972m | 5.0m/s | -0.2°C | 0% | 0hPa | 0V | 00:00:00 | 00:00:00 | 00:00:00 | |
| LZ4TU-5 | 2026-09-01 11:14:54 | 44.47723 | 26.24917 | 142° | 37km/h | 3946m | 6.5m/s | 0.0°C | 0% | 0hPa | 0V | 00:00:00 | 00:00:00 | 00:00:00 | |
| LZ4TU-5 | 2026-09-01 11:13:57 | 44.47988 | 26.24508 | 143° | 26km/h | 3675m | 5.1m/s | 2.9°C | 0% | 0hPa | 0V | 00:00:00 | 00:00:00 | 00:00:00 | |
| LZ4TU-5 | 2026-09-01 11:13:51 | 44.48005 | 26.24466 | 92° | 29km/h | 3652m | 4.9m/s | 3.1°C | 0% | 0hPa | 0V | 00:00:00 | 00:00:00 | 00:00:00 | |
| LZ4TU-5 | 2026-09-01 11:12:53 | 44.48222 | 26.24022 | 129° | 24km/h | 3401m | 3.1m/s | 4.6°C | 0% | 0hPa | 0V | 00:00:00 | 00:00:00 | 00:00:00 | |
| LZ4TU-5 | 2026-09-01 11:12:49 | 44.48238 | 26.24008 | 161° | 24km/h | 3386m | 1.7m/s | 4.7°C | 0% | 0hPa | 0V | 00:00:00 | 00:00:00 | 00:00:00 | |
| LZ4TU-5 | 2026-09-01 11:11:51 | 44.48470 | 26.23672 | 96° | 22km/h | 3100m | 3.5m/s | 7.3°C | 0% | 0hPa | 0V | 00:00:00 | 00:00:00 | 00:00:00 | |
| LZ4TU-5 | 2026-09-01 11:11:47 | 44.48480 | 26.23653 | 146° | 24km/h | 3084m | 4.8m/s | 7.4°C | 0% | 0hPa | 0V | 00:00:00 | 00:00:00 | 00:00:00 | |
| LZ4TU-5 | 2026-09-01 11:10:50 | 44.48622 | 26.23177 | 142° | 11km/h | 2834m | 5.5m/s | 9.1°C | 0% | 0hPa | 0V | 00:00:00 | 00:00:00 | 00:00:00 | |
| LZ4TU-5 | 2026-09-01 11:10:46 | 44.48632 | 26.23162 | 140° | 22km/h | 2818m | 4.5m/s | 9.3°C | 0% | 0hPa | 0V | 00:00:00 | 00:00:00 | 00:00:00 | |
| LZ4TU-5 | 2026-09-01 11:09:47 | 44.48947 | 26.22813 | 144° | 27km/h | 2554m | 4.4m/s | 10.7°C | 0% | 0hPa | 0V | 00:00:00 | 00:00:00 | 00:00:00 | |
| LZ4TU-5 | 2026-09-01 11:09:44 | 44.48970 | 26.22797 | 165° | 26km/h | 2539m | 3.8m/s | 10.9°C | 0% | 0hPa | 0V | 00:00:00 | 00:00:00 | 00:00:00 | |
| LZ4TU-5 | 2026-09-01 11:08:46 | 44.49256 | 26.22479 | 159° | 26km/h | 2255m | 5.2m/s | 13.5°C | 0% | 0hPa | 0V | 00:00:00 | 00:00:00 | 00:00:00 | |
| LZ4TU-5 | 2026-09-01 11:08:42 | 44.49274 | 26.22460 | 135° | 20km/h | 2234m | 5.3m/s | 13.6°C | 0% | 0hPa | 0V | 00:00:00 | 00:00:00 | 00:00:00 | |
| LZ4TU-5 | 2026-09-01 11:07:44 | 44.49473 | 26.22148 | 134° | 27km/h | 1994m | 4.4m/s | 13.7°C | 0% | 0hPa | 0V | 00:00:00 | 00:00:00 | 00:00:00 | |
| LZ4TU-5 | 2026-09-01 11:07:39 | 44.49490 | 26.22133 | 129° | 11km/h | 1981m | 5.0m/s | 13.7°C | 0% | 0hPa | 0V | 00:00:00 | 00:00:00 | 00:00:00 | |
| LZ4TU-5 | 2026-09-01 11:06:41 | 44.49649 | 26.21868 | 157° | 20km/h | 1692m | 6.5m/s | 15.2°C | 0% | 0hPa | 0V | 00:00:00 | 00:00:00 | 00:00:00 | |
| LZ4TU-5 | 2026-09-01 11:06:38 | 44.49666 | 26.21856 | 144° | 15km/h | 1675m | 3.7m/s | 0°C | 0% | 0hPa | 0V | 00:00:00 | 00:00:00 | 00:00:00 |